CheckWX is a tool to help pilots better visualize weather data.  It is not intended as a substitute for an official pre-flight weather briefing.

14:48:49 UTC

KOWD METAR
Norwood Memorial Airport
Norwood, Massachusetts, USA
Current

56 mins ago

KOWD 221353Z 04005KT 8SM BKN006 OVC011 14/11 A3009 RMK AO2 SLP188 T01440111 $
Observed
Apr-22 @ 13:53 UTC
Wind
  • 040° at 5 KTS
Visibility
8 SM
Flight Rules
IFR
Cloud Levels
  • Broken at 600' AGL
  • Overcast at 1,100' AGL
Temperature
14°C / 57°F
Dewpoint
11°C / 52°F
Humidity
82%
Altimeter
30.09" Hg
Pressure
1018.92 hPa
Previous

2 hours ago

KOWD 221253Z 03005KT 8SM BKN006 OVC100 14/12 A3009 RMK AO2 SLP190 T01440117
Observed
Apr-22 @ 12:53 UTC
Wind
  • 030° at 5 KTS
Visibility
8 SM
Flight Rules
IFR
Cloud Levels
  • Broken at 600' AGL
  • Overcast at 10,000' AGL
Temperature
14°C / 57°F
Dewpoint
12°C / 54°F
Humidity
88%
Altimeter
30.09" Hg
Pressure
1018.92 hPa
Previous

2 hours ago

KOWD 221239Z 02007KT 7SM SCT007 OVC100 14/12 A3009 RMK AO2 T01440117
Observed
Apr-22 @ 12:39 UTC
Wind
  • 020° at 7 KTS
Visibility
7 SM
Flight Rules
VFR
Cloud Levels
  • Scattered at 700' AGL
  • Overcast at 10,000' AGL
Temperature
14°C / 57°F
Dewpoint
12°C / 54°F
Humidity
88%
Altimeter
30.09" Hg
Pressure
1018.92 hPa